100LL.CA
Aviation Fuel Pricing for Canadians
Please upgrade your browser - Tested with IE9, FireFox, Chrome, Safari

Fuel Airports Other Help
Prices Economy Info List METAR/TAF Kneeboard Help

Reference Airport: ST. CATHARINES/NIAGARA DISTRICT, ON
N 43 11 30  W 079 10 16
Provinces to show:

CYSN ST. CATHARINES/NIAGARA DISTRICT, ON
WEATHER
METARCYSN 230200Z 20006KT 15SM OVC250 03/03 A2960 RMK CI8 LAST STFD OBS/NEXT 231200 UTC SLP027
TAFTAF AMD CYSN 222124Z 2221/2302 22008KT P6SM SCT015 OVC250 TEMPO 2221/2224 BKN015 OVC250 FM230000 20008KT P6SM SCT007 TEMPO 2300/2302 BKN007 PROB30 2300/2302 1/2SM FG VV002 RMK NXT FCST BY 231400Z
OTHER SITES

FlightAware

FltPlan

Google Maps

SkyVector
FUEL
FBO 100LL
member
100LL
public
JETA MOGAS
Opr (2020-12-17)2.1241.593
Canada Flight Supplement - CYSN
(opens in new tab/window)


Please Send Updates!

Desktop Version ]  [ Mobile Version ]  [ Disclaimer ]